Hlavní strana
METAR-TAF:

METAR-TAF

Letiště :

Brescia Ghedi, Itálie

zeměpisná šířka: 45-25N, zeměpisná délka: 010-17E, výška: 102 m

Aktuální stav počasí

Zpráva byla vytvořena před 20 hodinami a 33 minutami, v 14:55 UTC
Teplota 9°C
Vlhkost vzduchu 37%
Tlak 1009 hPa
Viditelnost: 6000 m
Polojasno ve výšce 4000 ft

METAR: LIPL 201455Z /////KT 6000 SCT040 09/M05 Q1009 RMK SCT VIS MIN 6000 WIND THR31 16005KT WHT

Čas: 12:28 (11:28 UTC)

Předpověď počasí

Zpráva byla vytvořena před 21 hodinami a 28 minutami, v 14:00 UTC
Předpověď platná od 20 v 15 UTC do 20 v 24 UTC
vítr z různých směrů 5 kt
Viditelnost: 8000 m
Skoro jasno ve výšce 3000 ft
Polojasno ve výšce 8000 ft
Dočasný
od 20 v 16 UTC do 20 v 18 UTC
Viditelnost: 5000 m
kouřmo

TAF: LIPL 201400Z 2015/2024 VRB05KT 8000 FEW030 SCT080 TEMPO 2016/2018 5000 BR

Stav a předpovědi počasí z více než 4 000 letišť (zprávy METAR a TAF).

Červené a žluté tečky na mapě představují dostupné meteorologické stanice.

Když kurzor umístíte na tečku, zobrazí se název stanice.

Pak kliknutím zobrazíte stav a předpověď počasí.

Chcete-li změnit mapu, kliknutím na zelené tlačítko se znaménkem +mapu přiblížíte, kliknutím na zelené tlačítko se znaménkem – mapu oddálíte a kliknutím na zelené šipky přejdete na sousední mapy.


METAR-TAF: